createdAt,value
2022-09-07T00:00:31.533Z,6.25
2022-09-07T00:03:00.283Z,6.43
2022-09-07T00:05:28.281Z,7.20
2022-09-07T00:07:55.481Z,6.40
2022-09-07T00:10:23.347Z,7.22
2022-09-07T00:12:50.638Z,6.72
2022-09-07T00:15:18.208Z,7.72
2022-09-07T00:17:45.108Z,7.45
2022-09-07T00:20:13.370Z,8.25
2022-09-07T00:22:40.240Z,7.68
2022-09-07T00:25:07.853Z,8.35
2022-09-07T00:27:34.798Z,6.80
2022-09-07T00:30:01.622Z,8.30
2022-09-07T00:32:28.488Z,7.45
2022-09-07T00:34:55.332Z,8.15
2022-09-07T00:37:23.941Z,9.77
2022-09-07T00:39:51.974Z,8.75
2022-09-07T00:42:20.018Z,9.90
2022-09-07T00:45:10.183Z,10.23
2022-09-07T00:47:47.572Z,11.75
2022-09-07T00:50:20.275Z,12.27
2022-09-07T00:52:53.209Z,13.38
2022-09-07T00:55:20.856Z,15.15
2022-09-07T00:57:52.223Z,14.80
2022-09-07T01:00:19.705Z,15.45
2022-09-07T01:02:48.597Z,15.63
2022-09-07T01:05:22.820Z,15.77
2022-09-07T01:07:51.146Z,14.68
2022-09-07T01:10:18.816Z,16.42
2022-09-07T01:12:45.673Z,16.65
2022-09-07T01:15:12.659Z,18.45
2022-09-07T01:17:54.832Z,17.92
2022-09-07T01:20:54.012Z,18.42
2022-09-07T01:23:52.589Z,17.02
2022-09-07T01:26:52.986Z,17.95
2022-09-07T01:29:28.566Z,17.17
2022-09-07T01:32:02.419Z,17.85
2022-09-07T01:34:29.545Z,16.25
2022-09-07T01:37:01.772Z,16.27
2022-09-07T01:39:35.645Z,15.60
2022-09-07T01:42:08.652Z,16.23
2022-09-07T01:44:41.805Z,16.17
2022-09-07T01:47:15.406Z,15.20
2022-09-07T01:49:48.535Z,14.32
2022-09-07T01:52:22.039Z,14.55
2022-09-07T01:54:55.255Z,14.43
2022-09-07T01:57:29.478Z,13.20
2022-09-07T02:00:04.580Z,13.13
2022-09-07T02:02:38.238Z,12.93
2022-09-07T02:05:09.673Z,13.32
2022-09-07T02:07:42.491Z,14.10
2022-09-07T02:10:14.179Z,13.43
2022-09-07T02:12:47.669Z,13.48
2022-09-07T02:15:21.671Z,13.63
2022-09-07T02:17:52.252Z,13.00
2022-09-07T02:20:23.307Z,13.60
2022-09-07T02:22:55.731Z,13.93
2022-09-07T02:25:24.713Z,13.68
2022-09-07T02:27:55.564Z,14.40
2022-09-07T02:30:23.905Z,13.68
2022-09-07T02:32:50.960Z,14.05
2022-09-07T02:35:18.102Z,12.55
2022-09-07T02:37:45.537Z,13.55
2022-09-07T02:40:12.991Z,13.48
2022-09-07T02:42:39.956Z,12.13
2022-09-07T02:45:10.800Z,11.13
2022-09-07T02:48:01.456Z,12.00
2022-09-07T02:51:02.515Z,10.50
2022-09-07T02:54:03.633Z,10.93
2022-09-07T02:56:44.420Z,10.05
2022-09-07T02:59:27.362Z,10.50
2022-09-07T03:02:01.684Z,10.00
2022-09-07T03:04:40.792Z,10.30
2022-09-07T03:07:11.611Z,9.30
2022-09-07T03:09:43.570Z,10.10
2022-09-07T03:12:10.666Z,10.70
2022-09-07T03:14:40.113Z,10.77
2022-09-07T03:17:07.793Z,11.75
2022-09-07T03:19:36.195Z,11.30
2022-09-07T03:22:03.901Z,12.38
2022-09-07T03:24:31.189Z,12.48
2022-09-07T03:26:58.505Z,13.02
2022-09-07T03:29:25.508Z,16.15
2022-09-07T03:31:52.342Z,15.57
2022-09-07T03:34:19.253Z,18.05
2022-09-07T03:36:47.630Z,19.08
2022-09-07T03:39:14.566Z,16.70
2022-09-07T03:41:41.570Z,17.77
2022-09-07T03:44:08.785Z,16.98
2022-09-07T03:46:35.702Z,16.90
2022-09-07T03:49:02.802Z,16.05
2022-09-07T03:51:29.853Z,16.90
2022-09-07T03:54:00.399Z,16.85
2022-09-07T03:56:27.621Z,15.40
2022-09-07T03:58:55.073Z,17.77
2022-09-07T04:01:23.738Z,16.10
2022-09-07T04:03:51.539Z,16.63
2022-09-07T04:06:19.492Z,16.35
2022-09-07T04:08:46.920Z,15.60
2022-09-07T04:11:17.453Z,17.85
2022-09-07T04:13:44.705Z,16.83
2022-09-07T04:16:14.464Z,17.02
2022-09-07T04:18:41.418Z,16.52
2022-09-07T04:21:08.366Z,18.45
2022-09-07T04:23:37.573Z,15.93
2022-09-07T04:26:04.388Z,18.40
2022-09-07T04:28:38.310Z,17.73
2022-09-07T04:31:05.380Z,16.40
2022-09-07T04:33:32.619Z,18.00
2022-09-07T04:36:00.734Z,17.80
2022-09-07T04:38:28.297Z,17.83
2022-09-07T04:40:59.525Z,17.98
2022-09-07T04:43:26.583Z,18.33
2022-09-07T04:45:54.936Z,17.45
2022-09-07T04:48:21.991Z,18.00
2022-09-07T04:50:48.864Z,19.30
2022-09-07T04:53:15.728Z,18.90
2022-09-07T04:55:42.566Z,19.13
2022-09-07T04:58:09.798Z,18.58
2022-09-07T05:00:39.157Z,19.83
2022-09-07T05:03:07.421Z,19.15
2022-09-07T05:05:37.852Z,20.73
2022-09-07T05:08:04.827Z,21.58
2022-09-07T05:10:31.889Z,21.63
2022-09-07T05:12:58.752Z,22.02
2022-09-07T05:15:25.525Z,23.30
2022-09-07T05:17:52.368Z,22.92
2022-09-07T05:20:21.420Z,23.77
2022-09-07T05:22:48.387Z,25.05
2022-09-07T05:25:15.339Z,24.95
2022-09-07T05:27:42.452Z,27.38
2022-09-07T05:32:57.435Z,28.00
2022-09-07T05:35:25.715Z,28.63
2022-09-07T05:37:52.796Z,28.08
2022-09-07T05:40:19.682Z,30.50
2022-09-07T05:42:46.568Z,29.15
2022-09-07T05:45:13.512Z,29.35
2022-09-07T05:47:40.414Z,31.08
2022-09-07T05:50:09.202Z,30.20
2022-09-07T05:52:37.419Z,31.05
2022-09-07T05:55:19.614Z,30.73
2022-09-07T05:57:51.674Z,29.58
2022-09-07T06:00:21.631Z,29.48
2022-09-07T06:02:48.696Z,29.95
2022-09-07T06:05:15.688Z,30.63
2022-09-07T06:07:48.028Z,31.83
2022-09-07T06:13:02.153Z,31.52
2022-09-07T06:15:29.015Z,32.20
2022-09-07T06:17:55.950Z,32.30
2022-09-07T06:20:22.873Z,30.58
2022-09-07T06:22:51.021Z,31.02
2022-09-07T06:25:17.823Z,31.10
2022-09-07T06:27:48.593Z,29.67
2022-09-07T06:30:15.479Z,29.75
2022-09-07T06:35:14.759Z,29.88
2022-09-07T06:37:42.159Z,29.17
2022-09-07T06:40:11.726Z,29.30
2022-09-07T06:42:39.045Z,27.48
2022-09-07T06:45:06.750Z,27.50
2022-09-07T06:47:33.558Z,26.08
2022-09-07T06:50:00.377Z,25.23
2022-09-07T06:52:28.241Z,26.17
2022-09-07T06:57:24.200Z,23.30
2022-09-07T06:59:51.016Z,21.95
2022-09-07T07:02:17.804Z,21.25
2022-09-07T07:04:46.595Z,19.23
2022-09-07T07:07:14.068Z,18.60
2022-09-07T07:09:41.923Z,17.52
2022-09-07T07:12:08.864Z,16.55
2022-09-07T07:14:38.682Z,17.08
2022-09-07T07:17:08.103Z,15.95
2022-09-07T07:19:34.881Z,15.57
2022-09-07T07:24:48.491Z,12.80
2022-09-07T07:27:15.539Z,10.98
2022-09-07T07:29:43.744Z,11.73
2022-09-07T07:32:10.600Z,11.15
2022-09-07T07:34:37.482Z,11.70
2022-09-07T07:37:04.310Z,10.93
2022-09-07T07:42:18.441Z,9.48
2022-09-07T07:44:46.903Z,8.40
2022-09-07T07:47:13.980Z,7.13
2022-09-07T07:49:40.786Z,6.47
2022-09-07T07:54:54.309Z,6.38
2022-09-07T07:57:21.147Z,6.43
2022-09-07T07:59:49.564Z,6.80
2022-09-07T08:02:17.354Z,6.35
2022-09-07T08:04:44.456Z,5.50
2022-09-07T08:07:14.426Z,5.13
2022-09-07T08:09:42.495Z,4.75
2022-09-07T08:12:11.377Z,5.20
2022-09-07T08:14:42.408Z,4.07
2022-09-07T08:17:12.791Z,4.30
2022-09-07T08:19:57.335Z,4.03
2022-09-07T08:22:34.717Z,4.25
2022-09-07T08:25:01.924Z,4.45
2022-09-07T08:27:29.403Z,4.28
2022-09-07T08:29:56.399Z,4.15
2022-09-07T08:32:24.755Z,3.95
2022-09-07T08:34:51.598Z,3.00
2022-09-07T08:37:18.577Z,3.22
2022-09-07T08:39:45.360Z,3.13
2022-09-07T08:42:26.254Z,4.05
2022-09-07T08:44:57.827Z,2.90
2022-09-07T08:47:32.569Z,3.47
2022-09-07T08:50:04.731Z,4.07
2022-09-07T08:52:45.795Z,3.58
2022-09-07T08:55:19.019Z,3.47
2022-09-07T08:57:51.654Z,2.97
2022-09-07T09:00:19.235Z,3.20
2022-09-07T09:03:28.558Z,4.25
2022-09-07T09:05:44.987Z,3.35
2022-09-07T09:08:22.827Z,3.58
2022-09-07T09:10:58.576Z,3.25
2022-09-07T09:13:38.094Z,3.80
2022-09-07T09:16:11.419Z,3.38
2022-09-07T09:18:52.535Z,3.17
2022-09-07T09:21:20.267Z,3.45
2022-09-07T09:29:15.865Z,3.10
2022-09-07T09:31:42.813Z,3.88
2022-09-07T09:34:13.310Z,3.58
2022-09-07T09:36:46.601Z,3.63
2022-09-07T09:39:31.371Z,3.65
2022-09-07T09:42:01.933Z,3.38
2022-09-07T09:44:33.792Z,3.50
2022-09-07T09:49:51.531Z,3.85
2022-09-07T09:52:30.394Z,3.38
2022-09-07T09:55:17.230Z,3.47
2022-09-07T10:01:21.140Z,3.47
2022-09-07T10:06:18.674Z,3.80
2022-09-07T10:08:55.321Z,3.03
2022-09-07T10:14:29.617Z,2.28
2022-09-07T10:30:56.527Z,2.50
2022-09-07T10:33:34.458Z,2.70
2022-09-07T10:36:10.844Z,2.08
2022-09-07T10:38:45.099Z,2.50
2022-09-07T10:41:11.966Z,2.83
2022-09-07T10:43:44.986Z,2.17
2022-09-07T10:46:57.307Z,2.45
2022-09-07T10:49:28.193Z,2.22
2022-09-07T10:52:13.658Z,2.25
2022-09-07T10:54:48.677Z,2.78
2022-09-07T10:57:33.478Z,2.70
2022-09-07T11:00:10.537Z,2.13
2022-09-07T11:06:13.970Z,2.67
2022-09-07T11:09:19.385Z,1.83
2022-09-07T11:12:07.247Z,2.60
2022-09-07T11:14:41.541Z,2.10
2022-09-07T11:17:15.135Z,2.65
2022-09-07T11:19:49.171Z,2.03
2022-09-07T11:22:23.052Z,2.45
2022-09-07T11:27:47.355Z,2.03
2022-09-07T11:30:20.005Z,1.98
2022-09-07T11:32:54.138Z,1.95
2022-09-07T11:35:30.207Z,1.92
2022-09-07T11:38:03.794Z,2.53
2022-09-07T11:40:34.149Z,2.28
2022-09-07T11:43:11.569Z,2.22
2022-09-07T11:45:44.485Z,2.15
2022-09-07T11:48:19.608Z,1.70
2022-09-07T11:50:53.414Z,2.28
2022-09-07T11:53:24.307Z,2.42
2022-09-07T11:55:56.548Z,1.92
2022-09-07T11:58:42.544Z,2.30
2022-09-07T12:01:20.424Z,2.42
2022-09-07T12:04:24.725Z,2.65
2022-09-07T12:07:17.020Z,2.53
2022-09-07T12:09:57.270Z,2.60
2022-09-07T12:12:50.598Z,1.40
2022-09-07T12:15:30.288Z,2.08
2022-09-07T12:18:16.760Z,2.33
2022-09-07T12:20:45.414Z,1.42
2022-09-07T12:23:26.736Z,2.10
2022-09-07T12:26:32.166Z,2.20
2022-09-07T12:29:20.146Z,1.48
2022-09-07T12:34:59.399Z,2.63
2022-09-07T12:37:45.429Z,2.30
2022-09-07T12:40:46.137Z,2.97
2022-09-07T12:43:52.536Z,1.92
2022-09-07T12:46:41.778Z,2.13
2022-09-07T12:49:32.200Z,2.20
2022-09-07T12:52:15.125Z,1.90
2022-09-07T12:57:46.411Z,2.55
2022-09-07T13:00:20.497Z,2.28
2022-09-07T13:07:01.677Z,1.83
2022-09-07T13:09:23.817Z,2.53
2022-09-07T13:11:50.653Z,2.08
2022-09-07T13:14:23.259Z,1.85
2022-09-07T13:17:29.496Z,1.83
2022-09-07T13:20:21.373Z,1.92
2022-09-07T13:22:55.712Z,2.03
2022-09-07T13:25:45.669Z,1.35
2022-09-07T13:28:37.445Z,1.73
2022-09-07T13:31:27.832Z,2.00
2022-09-07T13:33:55.082Z,1.92
2022-09-07T13:36:39.015Z,1.60
2022-09-07T13:39:11.501Z,1.75
2022-09-07T13:41:43.345Z,1.88
2022-09-07T13:44:25.909Z,2.22
2022-09-07T13:47:02.917Z,2.17
2022-09-07T13:49:43.418Z,2.00
2022-09-07T13:52:15.766Z,1.90
2022-09-07T13:54:58.642Z,2.05
2022-09-07T13:57:32.232Z,2.28
2022-09-07T13:59:59.374Z,2.25
2022-09-07T14:02:32.304Z,2.40
2022-09-07T14:05:00.714Z,2.55
2022-09-07T14:07:29.227Z,2.00
2022-09-07T14:10:10.388Z,2.40
2022-09-07T14:12:43.727Z,2.40
2022-09-07T14:17:46.353Z,2.10
2022-09-07T14:20:14.602Z,2.00
2022-09-07T14:22:42.829Z,1.92
2022-09-07T14:25:16.337Z,2.33
2022-09-07T14:27:45.497Z,2.13
2022-09-07T14:30:21.988Z,2.60
2022-09-07T14:32:53.108Z,2.25
2022-09-07T14:35:22.507Z,2.00
2022-09-07T14:37:50.759Z,1.80
2022-09-07T14:40:21.807Z,2.58
2022-09-07T14:42:49.915Z,1.95
2022-09-07T14:45:19.138Z,2.75
2022-09-07T14:47:47.173Z,1.90
2022-09-07T14:50:21.279Z,2.25
2022-09-07T14:53:34.233Z,1.90
2022-09-07T14:55:39.399Z,3.42
2022-09-07T14:58:30.300Z,2.13
2022-09-07T15:03:59.167Z,1.80
2022-09-07T15:09:29.141Z,2.38
2022-09-07T15:12:04.338Z,2.10
2022-09-07T15:14:31.394Z,2.85
2022-09-07T15:19:47.167Z,2.20
2022-09-07T15:22:15.572Z,2.08
2022-09-07T15:24:42.273Z,1.88
2022-09-07T15:27:18.974Z,1.85
2022-09-07T15:29:45.817Z,2.13
2022-09-07T15:32:12.935Z,1.67
2022-09-07T15:34:39.765Z,1.88
2022-09-07T15:38:01.194Z,1.90
2022-09-07T15:39:55.694Z,1.60
2022-09-07T15:45:09.867Z,1.77
2022-09-07T15:47:47.985Z,1.90
2022-09-07T15:50:18.533Z,2.08
2022-09-07T15:52:46.435Z,1.60
2022-09-07T15:55:17.672Z,1.73
2022-09-07T15:57:49.213Z,1.98
2022-09-07T16:00:17.464Z,2.13
2022-09-07T16:05:31.646Z,2.20
2022-09-07T16:11:04.758Z,1.77
2022-09-07T16:13:32.685Z,2.03
2022-09-07T16:16:00.555Z,2.00
2022-09-07T16:18:31.382Z,1.80
2022-09-07T16:21:04.810Z,2.22
2022-09-07T16:23:31.557Z,2.00
2022-09-07T16:26:01.540Z,2.42
2022-09-07T16:28:29.231Z,2.58
2022-09-07T16:30:56.575Z,2.67
2022-09-07T16:33:31.279Z,2.00
2022-09-07T16:36:06.207Z,2.35
2022-09-07T16:38:49.054Z,2.55
2022-09-07T16:41:20.078Z,2.33
2022-09-07T16:43:47.133Z,2.78
2022-09-07T16:46:16.693Z,2.08
2022-09-07T16:48:44.114Z,2.38
2022-09-07T16:51:13.632Z,2.35
2022-09-07T16:53:40.633Z,2.35
2022-09-07T16:56:10.416Z,2.17
2022-09-07T16:58:40.493Z,2.47
2022-09-07T17:01:08.911Z,3.03
2022-09-07T17:03:36.439Z,3.33
2022-09-07T17:06:05.418Z,2.88
2022-09-07T17:08:33.694Z,3.17
2022-09-07T17:11:01.072Z,2.40
2022-09-07T17:13:28.380Z,2.85
2022-09-07T17:16:01.998Z,3.13
2022-09-07T17:21:16.611Z,2.78
2022-09-07T17:23:51.069Z,3.03
2022-09-07T17:26:22.455Z,2.75
2022-09-07T17:28:51.064Z,3.05
2022-09-07T17:34:08.778Z,2.60
2022-09-07T17:36:35.587Z,3.00
2022-09-07T17:39:19.132Z,2.38
2022-09-07T17:41:46.716Z,2.58
2022-09-07T17:44:13.594Z,2.10
2022-09-07T17:46:41.866Z,3.10
2022-09-07T17:49:12.346Z,2.63
2022-09-07T17:51:39.791Z,2.85
2022-09-07T17:54:11.474Z,2.38
2022-09-07T17:56:39.288Z,2.80
2022-09-07T18:01:54.696Z,2.08
2022-09-07T18:04:22.338Z,2.20
2022-09-07T18:06:49.258Z,2.53
2022-09-07T18:09:16.587Z,2.20
2022-09-07T18:11:48.136Z,1.70
2022-09-07T18:14:16.512Z,2.30
2022-09-07T18:16:45.888Z,2.50
2022-09-07T18:19:14.299Z,1.95
2022-09-07T18:21:43.088Z,2.67
2022-09-07T18:24:13.999Z,1.80
2022-09-07T18:26:41.128Z,2.17
2022-09-07T18:29:27.310Z,2.15
2022-09-07T18:31:55.495Z,2.28
2022-09-07T18:34:23.773Z,2.47
2022-09-07T18:36:50.693Z,2.03
2022-09-07T18:39:17.696Z,2.08
2022-09-07T18:41:44.453Z,1.90
2022-09-07T18:46:57.980Z,1.88
2022-09-07T18:49:26.315Z,1.88
2022-09-07T18:54:41.385Z,2.17
2022-09-07T18:57:08.377Z,2.70
2022-09-07T18:59:35.361Z,1.73
2022-09-07T19:02:04.667Z,2.38
2022-09-07T19:07:21.021Z,1.77
2022-09-07T19:09:48.435Z,2.13
2022-09-07T19:12:15.612Z,2.15
2022-09-07T19:14:42.492Z,1.98
2022-09-07T19:17:11.011Z,2.33
2022-09-07T19:19:39.708Z,1.70
2022-09-07T19:22:06.558Z,2.00
2022-09-07T19:24:33.540Z,1.30
2022-09-07T19:27:01.161Z,1.95
2022-09-07T19:29:29.173Z,1.30
2022-09-07T19:32:05.571Z,1.17
2022-09-07T19:34:32.834Z,1.30
2022-09-07T19:37:01.350Z,1.40
2022-09-07T19:39:28.321Z,1.05
2022-09-07T19:41:55.133Z,1.23
2022-09-07T19:44:22.129Z,1.15
2022-09-07T19:46:50.173Z,1.30
2022-09-07T19:49:17.105Z,1.13
2022-09-07T19:51:44.053Z,1.45
2022-09-07T19:54:13.648Z,0.93
2022-09-07T19:56:42.748Z,1.33
2022-09-07T19:59:09.807Z,1.02
2022-09-07T20:01:37.745Z,1.58
2022-09-07T20:04:06.815Z,1.17
2022-09-07T20:06:36.667Z,1.13
2022-09-07T20:09:03.623Z,1.02
2022-09-07T20:11:32.480Z,1.65
2022-09-07T20:13:59.587Z,1.17
2022-09-07T20:16:28.232Z,1.70
2022-09-07T20:18:55.276Z,1.42
2022-09-07T20:21:23.859Z,1.65
2022-09-07T20:23:51.267Z,1.65
2022-09-07T20:26:20.800Z,2.28
2022-09-07T20:29:05.873Z,1.58
2022-09-07T20:31:40.275Z,1.73
2022-09-07T20:34:07.111Z,2.22
2022-09-07T20:36:33.857Z,2.55
2022-09-07T20:39:00.946Z,2.00
2022-09-07T20:41:29.741Z,1.98
2022-09-07T20:44:00.030Z,2.22
2022-09-07T20:46:28.486Z,2.10
2022-09-07T20:48:55.938Z,2.20
2022-09-07T20:51:23.102Z,2.40
2022-09-07T20:53:50.334Z,2.60
2022-09-07T20:56:18.960Z,2.67
2022-09-07T20:58:47.045Z,2.40
2022-09-07T21:01:17.844Z,2.00
2022-09-07T21:03:49.008Z,2.47
2022-09-07T21:06:16.960Z,2.97
2022-09-07T21:08:45.616Z,2.88
2022-09-07T21:11:15.191Z,2.22
2022-09-07T21:13:42.789Z,2.78
2022-09-07T21:16:11.687Z,2.72
2022-09-07T21:18:41.037Z,2.45
2022-09-07T21:21:23.935Z,3.05
2022-09-07T21:23:55.737Z,2.88
2022-09-07T21:26:22.771Z,3.20
2022-09-07T21:28:54.360Z,2.63
2022-09-07T21:31:21.292Z,2.25
2022-09-07T21:33:54.300Z,3.03
2022-09-07T21:36:21.234Z,2.22
2022-09-07T21:38:48.380Z,2.83
2022-09-07T21:41:19.614Z,2.63
2022-09-07T21:43:46.716Z,3.00
2022-09-07T21:46:16.428Z,3.05
2022-09-07T21:48:43.947Z,3.25
2022-09-07T21:51:12.896Z,2.92
2022-09-07T21:53:40.138Z,2.78
2022-09-07T21:56:11.088Z,2.85
2022-09-07T21:58:38.588Z,2.55
2022-09-07T22:01:14.808Z,2.97
2022-09-07T22:03:55.325Z,3.25
2022-09-07T22:06:43.983Z,4.18
2022-09-07T22:09:14.492Z,3.60
2022-09-07T22:11:50.731Z,3.33
2022-09-07T22:14:35.625Z,3.92
2022-09-07T22:17:02.809Z,3.67
2022-09-07T22:19:40.112Z,3.95
2022-09-07T22:22:08.710Z,3.72
2022-09-07T22:24:35.481Z,3.28
2022-09-07T22:27:02.267Z,3.47
2022-09-07T22:29:29.123Z,3.63
2022-09-07T22:31:56.044Z,3.92
2022-09-07T22:34:22.884Z,3.60
2022-09-07T22:36:49.750Z,3.72
2022-09-07T22:39:18.923Z,4.03
2022-09-07T22:41:47.469Z,3.63
2022-09-07T22:44:16.028Z,3.47
2022-09-07T22:46:45.166Z,4.25
2022-09-07T22:49:13.180Z,4.35
2022-09-07T22:51:40.007Z,3.45
2022-09-07T22:54:07.247Z,3.65
2022-09-07T22:56:37.306Z,3.67
2022-09-07T22:59:07.399Z,3.58
2022-09-07T23:01:41.157Z,3.88
2022-09-07T23:04:11.572Z,3.60
2022-09-07T23:06:40.495Z,3.80
2022-09-07T23:09:10.341Z,4.22
2022-09-07T23:11:47.126Z,4.00
2022-09-07T23:14:16.304Z,3.28
2022-09-07T23:16:43.739Z,3.63
2022-09-07T23:19:22.261Z,3.72
2022-09-07T23:21:49.061Z,4.07
2022-09-07T23:24:17.977Z,4.07
2022-09-07T23:26:47.151Z,4.32
2022-09-07T23:29:15.145Z,3.75
2022-09-07T23:31:42.599Z,3.97
2022-09-07T23:34:09.599Z,4.57
2022-09-07T23:36:37.148Z,3.70
2022-09-07T23:39:04.271Z,3.90
2022-09-07T23:41:31.577Z,3.88
2022-09-07T23:44:00.512Z,3.75
2022-09-07T23:46:27.469Z,3.80
2022-09-07T23:48:54.318Z,3.90
2022-09-07T23:51:24.207Z,4.38
2022-09-07T23:53:51.954Z,3.55
2022-09-07T23:56:18.797Z,3.97
2022-09-07T23:58:45.591Z,4.10
